createdAt,value
2023-05-09T00:00:12.050Z,1.50
2023-05-09T00:03:02.567Z,1.46
2023-05-09T00:05:30.635Z,1.40
2023-05-09T00:07:58.382Z,1.34
2023-05-09T00:10:27.655Z,1.25
2023-05-09T00:12:56.101Z,1.19
2023-05-09T00:15:26.255Z,1.12
2023-05-09T00:17:54.758Z,1.07
2023-05-09T00:20:23.839Z,1.00
2023-05-09T00:22:51.858Z,1.10
2023-05-09T00:25:20.133Z,1.06
2023-05-09T00:27:47.495Z,1.11
2023-05-09T00:30:15.637Z,1.10
2023-05-09T00:32:43.406Z,1.12
2023-05-09T00:35:11.444Z,1.05
2023-05-09T00:37:38.960Z,1.09
2023-05-09T00:40:07.779Z,1.05
2023-05-09T00:42:36.278Z,0.95
2023-05-09T00:45:04.780Z,0.87
2023-05-09T00:47:34.828Z,0.82
2023-05-09T00:50:03.134Z,0.78
2023-05-09T00:52:31.415Z,0.76
2023-05-09T00:55:00.754Z,0.75
2023-05-09T00:57:29.203Z,0.74
2023-05-09T00:59:57.995Z,0.76
2023-05-09T01:02:26.415Z,0.72
2023-05-09T01:04:55.178Z,0.72
2023-05-09T01:07:39.585Z,0.70
2023-05-09T01:10:45.897Z,0.66
2023-05-09T01:13:24.847Z,0.64
2023-05-09T01:15:56.095Z,0.65
2023-05-09T01:18:35.440Z,0.63
2023-05-09T01:21:08.958Z,0.59
2023-05-09T01:23:39.806Z,0.57
2023-05-09T01:26:30.440Z,0.57
2023-05-09T01:29:16.880Z,0.56
2023-05-09T01:31:45.856Z,0.55
2023-05-09T01:34:16.165Z,0.52
2023-05-09T01:36:45.768Z,0.51
2023-05-09T01:39:14.632Z,0.51
2023-05-09T01:41:42.571Z,0.48
2023-05-09T01:44:13.223Z,0.48
2023-05-09T01:46:43.561Z,0.44
2023-05-09T01:49:11.789Z,0.38
2023-05-09T01:51:43.820Z,0.33
2023-05-09T01:54:13.245Z,0.31
2023-05-09T01:56:42.801Z,0.21
2023-05-09T01:59:16.587Z,0.27
2023-05-09T02:01:46.154Z,0.25
2023-05-09T02:04:16.096Z,0.24
2023-05-09T02:06:45.410Z,0.19
2023-05-09T02:09:13.367Z,0.16
2023-05-09T02:11:43.866Z,0.12
2023-05-09T02:14:12.035Z,0.10
2023-05-09T02:16:41.427Z,0.07
2023-05-09T02:19:09.950Z,-0.01
2023-05-09T02:21:38.568Z,-0.04
2023-05-09T02:24:07.260Z,-0.01
2023-05-09T02:26:37.136Z,0.02
2023-05-09T02:29:07.563Z,0.00
2023-05-09T02:31:36.881Z,0.03
2023-05-09T02:34:05.869Z,-0.02
2023-05-09T02:36:36.673Z,-0.02
2023-05-09T02:39:05.047Z,0.01
2023-05-09T02:41:33.257Z,0.00
2023-05-09T02:44:01.656Z,-0.06
2023-05-09T02:46:31.689Z,-0.08
2023-05-09T02:49:01.062Z,-0.06
2023-05-09T02:51:29.842Z,-0.14
2023-05-09T02:53:58.333Z,-0.12
2023-05-09T02:56:27.022Z,-0.16
2023-05-09T02:58:55.703Z,-0.17
2023-05-09T03:01:24.526Z,-0.20
2023-05-09T03:03:52.729Z,-0.19
2023-05-09T03:06:22.648Z,-0.16
2023-05-09T03:08:50.613Z,-0.15
2023-05-09T03:11:19.194Z,-0.14
2023-05-09T03:13:48.863Z,-0.17
2023-05-09T03:16:18.614Z,-0.11
2023-05-09T03:18:47.091Z,-0.13
2023-05-09T03:21:15.061Z,-0.10
2023-05-09T03:23:43.086Z,-0.09
2023-05-09T03:26:11.395Z,-0.06
2023-05-09T03:28:39.713Z,-0.07
2023-05-09T03:31:08.413Z,-0.06
2023-05-09T03:33:36.836Z,-0.07
2023-05-09T03:36:06.062Z,-0.05
2023-05-09T03:38:33.998Z,-0.04
2023-05-09T03:41:02.579Z,0.10
2023-05-09T03:43:31.009Z,0.08
2023-05-09T03:45:59.427Z,0.25
2023-05-09T03:48:28.261Z,0.33
2023-05-09T03:50:57.409Z,0.36
2023-05-09T03:53:28.019Z,0.42
2023-05-09T03:55:56.924Z,0.55
2023-05-09T03:58:27.350Z,0.71
2023-05-09T04:00:56.592Z,0.79
2023-05-09T04:03:27.378Z,0.95
2023-05-09T04:05:56.544Z,1.13
2023-05-09T04:08:34.073Z,1.36
2023-05-09T04:11:05.047Z,1.57
2023-05-09T04:13:34.520Z,1.75
2023-05-09T04:16:07.904Z,1.96
2023-05-09T04:18:37.108Z,2.11
2023-05-09T04:21:05.239Z,2.36
2023-05-09T04:23:33.354Z,2.54
2023-05-09T04:26:01.397Z,2.76
2023-05-09T04:28:29.589Z,2.99
2023-05-09T04:30:59.007Z,3.21
2023-05-09T04:33:26.639Z,3.42
2023-05-09T04:36:01.631Z,3.62
2023-05-09T04:38:29.595Z,3.86
2023-05-09T04:40:58.958Z,4.09
2023-05-09T04:43:28.731Z,4.33
2023-05-09T04:45:58.682Z,4.58
2023-05-09T04:48:26.509Z,4.81
2023-05-09T04:50:55.081Z,5.06
2023-05-09T04:53:23.483Z,5.31
2023-05-09T04:55:54.117Z,5.52
2023-05-09T04:58:23.024Z,5.79
2023-05-09T05:00:51.839Z,6.17
2023-05-09T05:03:20.493Z,6.63
2023-05-09T05:05:50.323Z,6.91
2023-05-09T05:08:18.829Z,7.30
2023-05-09T05:10:49.766Z,7.68
2023-05-09T05:13:19.133Z,8.19
2023-05-09T05:15:52.006Z,8.63
2023-05-09T05:18:21.896Z,9.04
2023-05-09T05:20:51.332Z,9.42
2023-05-09T05:23:20.087Z,10.00
2023-05-09T05:25:51.721Z,10.38
2023-05-09T05:28:20.818Z,10.77
2023-05-09T05:30:50.055Z,11.07
2023-05-09T05:33:18.743Z,11.20
2023-05-09T05:35:47.591Z,11.64
2023-05-09T05:38:16.219Z,12.13
2023-05-09T05:40:49.776Z,12.61
2023-05-09T05:43:18.378Z,12.91
2023-05-09T05:45:46.948Z,13.14
2023-05-09T05:48:19.172Z,13.46
2023-05-09T05:50:49.019Z,13.69
2023-05-09T05:53:21.074Z,13.95
2023-05-09T05:55:53.660Z,14.19
2023-05-09T05:58:23.089Z,14.50
2023-05-09T06:00:53.756Z,14.56
2023-05-09T06:03:24.555Z,14.64
2023-05-09T06:06:04.063Z,14.86
2023-05-09T06:08:32.826Z,15.24
2023-05-09T06:11:02.004Z,15.09
2023-05-09T06:13:29.861Z,14.96
2023-05-09T06:16:18.513Z,14.80
2023-05-09T06:18:50.297Z,14.42
2023-05-09T06:21:18.548Z,14.51
2023-05-09T06:24:05.036Z,14.46
2023-05-09T06:26:36.811Z,14.49
2023-05-09T06:29:06.553Z,14.43
2023-05-09T06:31:39.277Z,14.76
2023-05-09T06:34:07.755Z,15.11
2023-05-09T06:36:36.702Z,15.28
2023-05-09T06:39:05.047Z,15.32
2023-05-09T06:41:35.101Z,15.47
2023-05-09T06:44:03.091Z,15.72
2023-05-09T06:46:31.837Z,15.99
2023-05-09T06:49:02.697Z,16.22
2023-05-09T06:51:31.590Z,16.45
2023-05-09T06:53:59.902Z,16.37
2023-05-09T06:56:28.560Z,16.28
2023-05-09T06:58:56.708Z,16.22
2023-05-09T07:01:25.424Z,15.95
2023-05-09T07:03:53.468Z,15.93
2023-05-09T07:06:22.236Z,15.58
2023-05-09T07:09:17.915Z,15.15
2023-05-09T07:11:46.616Z,15.46
2023-05-09T07:14:14.832Z,15.85
2023-05-09T07:16:43.338Z,16.08
2023-05-09T07:19:11.081Z,15.86
2023-05-09T07:21:39.574Z,15.78
2023-05-09T07:24:09.146Z,15.86
2023-05-09T07:26:38.191Z,16.15
2023-05-09T07:29:06.517Z,16.31
2023-05-09T07:31:37.219Z,16.25
2023-05-09T07:34:06.088Z,16.31
2023-05-09T07:36:35.612Z,16.32
2023-05-09T07:39:05.396Z,16.25
2023-05-09T07:41:34.033Z,16.54
2023-05-09T07:44:02.306Z,16.54
2023-05-09T07:46:30.731Z,16.13
2023-05-09T07:48:59.121Z,16.06
2023-05-09T07:51:27.922Z,16.02
2023-05-09T07:53:57.304Z,15.60
2023-05-09T07:56:27.118Z,15.77
2023-05-09T07:58:55.805Z,15.74
2023-05-09T08:01:24.415Z,15.65
2023-05-09T08:03:52.405Z,15.71
2023-05-09T08:06:21.059Z,15.83
2023-05-09T08:08:49.675Z,15.98
2023-05-09T08:11:18.394Z,16.30
2023-05-09T08:13:47.338Z,16.60
2023-05-09T08:16:17.851Z,16.78
2023-05-09T08:18:46.974Z,16.90
2023-05-09T08:21:15.727Z,16.87
2023-05-09T08:23:43.494Z,16.72
2023-05-09T08:26:11.607Z,16.60
2023-05-09T08:28:39.791Z,16.55
2023-05-09T08:31:07.805Z,16.41
2023-05-09T08:33:36.247Z,16.14
2023-05-09T08:36:05.513Z,16.18
2023-05-09T08:38:33.430Z,16.13
2023-05-09T08:41:02.453Z,16.35
2023-05-09T08:43:31.086Z,16.68
2023-05-09T08:46:00.948Z,16.72
2023-05-09T08:48:29.740Z,16.99
2023-05-09T08:50:58.368Z,17.18
2023-05-09T08:53:27.693Z,16.74
2023-05-09T08:55:56.694Z,16.48
2023-05-09T08:58:24.825Z,16.14
2023-05-09T09:00:54.423Z,16.32
2023-05-09T09:03:24.720Z,16.22
2023-05-09T09:05:55.025Z,16.05
2023-05-09T09:08:23.631Z,15.84
2023-05-09T09:10:52.521Z,15.97
2023-05-09T09:13:21.807Z,16.22
2023-05-09T09:15:52.289Z,16.10
2023-05-09T09:18:24.663Z,15.99
2023-05-09T09:20:58.640Z,15.92
2023-05-09T09:23:27.537Z,15.73
2023-05-09T09:26:05.236Z,15.82
2023-05-09T09:28:34.964Z,16.03
2023-05-09T09:31:29.074Z,16.04
2023-05-09T09:34:01.835Z,15.91
2023-05-09T09:36:32.929Z,16.00
2023-05-09T09:39:02.146Z,16.17
2023-05-09T09:41:39.316Z,16.44
2023-05-09T09:44:09.900Z,16.37
2023-05-09T09:46:51.124Z,16.52
2023-05-09T09:49:21.730Z,16.69
2023-05-09T09:51:52.723Z,16.56
2023-05-09T09:54:21.481Z,16.64
2023-05-09T09:56:53.598Z,16.70
2023-05-09T09:59:25.902Z,16.81
2023-05-09T10:01:54.451Z,16.76
2023-05-09T10:04:23.243Z,16.66
2023-05-09T10:06:56.833Z,16.29
2023-05-09T10:09:25.826Z,16.22
2023-05-09T10:11:55.883Z,16.19
2023-05-09T10:14:26.160Z,16.35
2023-05-09T10:16:58.103Z,16.38
2023-05-09T10:19:27.900Z,16.29
2023-05-09T10:21:59.149Z,16.42
2023-05-09T10:24:29.731Z,16.57
2023-05-09T10:27:07.277Z,16.64
2023-05-09T10:29:37.026Z,16.71
2023-05-09T10:32:24.414Z,16.28
2023-05-09T10:34:55.442Z,16.23
2023-05-09T10:37:24.186Z,16.35
2023-05-09T10:39:54.012Z,16.42
2023-05-09T10:42:25.650Z,16.41
2023-05-09T10:44:54.319Z,16.48
2023-05-09T10:47:22.933Z,16.48
2023-05-09T10:49:50.781Z,16.38
2023-05-09T10:52:23.204Z,16.54
2023-05-09T10:55:02.663Z,16.65
2023-05-09T10:57:32.925Z,16.47
2023-05-09T11:00:02.053Z,16.31
2023-05-09T11:02:33.021Z,16.33
2023-05-09T11:05:22.106Z,16.38
2023-05-09T11:08:29.245Z,16.20
2023-05-09T11:11:03.352Z,16.10
2023-05-09T11:13:33.597Z,16.12
2023-05-09T11:16:02.067Z,16.25
2023-05-09T11:18:32.682Z,16.26
2023-05-09T11:21:08.516Z,16.20
2023-05-09T11:23:39.177Z,16.36
2023-05-09T11:26:08.785Z,16.44
2023-05-09T11:28:38.324Z,16.26
2023-05-09T11:31:24.805Z,16.33
2023-05-09T11:34:03.319Z,16.51
2023-05-09T11:36:35.911Z,16.64
2023-05-09T11:39:10.921Z,16.33
2023-05-09T11:41:41.044Z,16.25
2023-05-09T11:44:21.577Z,16.12
2023-05-09T11:46:50.229Z,16.09
2023-05-09T11:49:19.989Z,16.10
2023-05-09T11:51:47.765Z,16.05
2023-05-09T11:54:16.001Z,15.99
2023-05-09T11:56:44.085Z,16.05
2023-05-09T11:59:14.962Z,16.25
2023-05-09T12:01:43.101Z,16.51
2023-05-09T12:04:12.358Z,16.70
2023-05-09T12:06:40.761Z,16.75
2023-05-09T12:09:10.693Z,17.05
2023-05-09T12:11:39.280Z,17.14
2023-05-09T12:14:07.938Z,17.21
2023-05-09T12:16:36.241Z,17.13
2023-05-09T12:19:05.255Z,17.08
2023-05-09T12:21:34.107Z,16.74
2023-05-09T12:24:02.824Z,16.84
2023-05-09T12:26:31.274Z,16.76
2023-05-09T12:29:00.155Z,16.84
2023-05-09T12:31:28.768Z,16.86
2023-05-09T12:33:57.720Z,17.00
2023-05-09T12:36:27.031Z,16.89
2023-05-09T12:38:56.805Z,16.85
2023-05-09T12:43:56.902Z,16.74
2023-05-09T12:46:26.284Z,16.88
2023-05-09T12:48:55.154Z,16.88
2023-05-09T12:51:24.003Z,16.78
2023-05-09T12:53:52.783Z,16.76
2023-05-09T12:56:23.683Z,16.70
2023-05-09T12:58:54.041Z,16.65
2023-05-09T13:01:27.902Z,16.72
2023-05-09T13:04:04.203Z,16.74
2023-05-09T13:06:36.619Z,16.62
2023-05-09T13:09:06.703Z,16.46
2023-05-09T13:11:36.037Z,16.70
2023-05-09T13:14:04.762Z,16.70
2023-05-09T13:16:32.758Z,16.66
2023-05-09T13:19:02.059Z,16.73
2023-05-09T13:21:30.136Z,16.74
2023-05-09T13:23:58.669Z,16.74
2023-05-09T13:26:28.306Z,16.67
2023-05-09T13:28:57.151Z,16.77
2023-05-09T13:31:25.751Z,16.65
2023-05-09T13:33:54.463Z,16.83
2023-05-09T13:36:23.410Z,16.72
2023-05-09T13:38:51.873Z,16.62
2023-05-09T13:41:23.160Z,16.68
2023-05-09T13:43:52.191Z,16.68
2023-05-09T13:46:20.378Z,16.70
2023-05-09T13:48:52.573Z,16.78
2023-05-09T13:51:22.150Z,16.77
2023-05-09T13:53:51.526Z,16.84
2023-05-09T13:56:20.445Z,16.90
2023-05-09T13:58:48.849Z,16.77
2023-05-09T14:01:16.736Z,16.61
2023-05-09T14:03:47.986Z,16.68
2023-05-09T14:06:17.465Z,16.95
2023-05-09T14:08:46.173Z,16.86
2023-05-09T14:11:14.201Z,16.79
2023-05-09T14:13:42.600Z,16.76
2023-05-09T14:16:10.765Z,16.72
2023-05-09T14:18:40.150Z,16.67
2023-05-09T14:21:08.198Z,16.81
2023-05-09T14:23:36.575Z,16.88
2023-05-09T14:26:04.345Z,16.96
2023-05-09T14:28:32.914Z,17.00
2023-05-09T14:31:01.922Z,16.83
2023-05-09T14:33:30.626Z,17.00
2023-05-09T14:35:58.935Z,16.94
2023-05-09T14:38:27.750Z,16.92
2023-05-09T14:40:56.427Z,16.80
2023-05-09T14:43:24.969Z,16.77
2023-05-09T14:45:52.794Z,16.81
2023-05-09T14:48:21.375Z,16.80
2023-05-09T14:50:50.154Z,16.73
2023-05-09T14:53:18.799Z,16.72
2023-05-09T14:55:47.126Z,16.75
2023-05-09T14:58:16.308Z,16.70
2023-05-09T15:00:47.961Z,16.60
2023-05-09T15:03:16.520Z,16.54
2023-05-09T15:05:45.224Z,16.62
2023-05-09T15:08:14.577Z,16.64
2023-05-09T15:10:42.901Z,16.64
2023-05-09T15:13:11.942Z,16.81
2023-05-09T15:15:40.981Z,16.81
2023-05-09T15:18:10.596Z,16.70
2023-05-09T15:20:38.906Z,16.81
2023-05-09T15:23:08.105Z,16.83
2023-05-09T15:25:36.292Z,16.69
2023-05-09T15:28:05.111Z,16.62
2023-05-09T15:30:34.862Z,16.68
2023-05-09T15:33:04.623Z,16.76
2023-05-09T15:35:32.932Z,16.78
2023-05-09T15:38:00.814Z,16.85
2023-05-09T15:40:29.344Z,16.84
2023-05-09T15:42:58.025Z,16.79
2023-05-09T15:45:39.265Z,16.64
2023-05-09T15:48:07.755Z,16.60
2023-05-09T15:50:35.927Z,16.51
2023-05-09T15:53:06.409Z,16.31
2023-05-09T15:55:35.051Z,16.25
2023-05-09T15:58:03.376Z,16.27
2023-05-09T16:00:31.428Z,16.25
2023-05-09T16:03:00.053Z,16.27
2023-05-09T16:05:27.975Z,16.24
2023-05-09T16:07:56.482Z,16.20
2023-05-09T16:10:24.252Z,16.21
2023-05-09T16:12:53.050Z,16.18
2023-05-09T16:15:21.505Z,16.12
2023-05-09T16:17:49.506Z,16.10
2023-05-09T16:20:17.485Z,16.00
2023-05-09T16:22:45.883Z,15.99
2023-05-09T16:25:14.489Z,15.95
2023-05-09T16:27:45.999Z,16.08
2023-05-09T16:30:14.996Z,16.06
2023-05-09T16:32:43.419Z,15.98
2023-05-09T16:35:11.302Z,15.90
2023-05-09T16:37:40.050Z,15.90
2023-05-09T16:40:08.668Z,15.93
2023-05-09T16:42:37.472Z,15.91
2023-05-09T16:45:06.855Z,15.91
2023-05-09T16:47:35.515Z,15.83
2023-05-09T16:50:05.363Z,15.82
2023-05-09T16:52:33.857Z,15.79
2023-05-09T16:55:01.841Z,15.70
2023-05-09T16:57:30.361Z,15.56
2023-05-09T16:59:58.789Z,15.54
2023-05-09T17:02:26.905Z,15.49
2023-05-09T17:04:55.320Z,15.45
2023-05-09T17:07:23.940Z,15.40
2023-05-09T17:09:51.817Z,15.33
2023-05-09T17:12:20.763Z,15.36
2023-05-09T17:14:48.843Z,15.25
2023-05-09T17:17:17.852Z,15.26
2023-05-09T17:19:45.947Z,15.22
2023-05-09T17:22:14.036Z,15.15
2023-05-09T17:24:42.035Z,15.18
2023-05-09T17:27:11.701Z,15.11
2023-05-09T17:29:39.649Z,15.09
2023-05-09T17:32:08.026Z,14.98
2023-05-09T17:34:36.510Z,14.88
2023-05-09T17:37:06.248Z,14.85
2023-05-09T17:39:34.801Z,14.74
2023-05-09T17:42:02.832Z,14.70
2023-05-09T17:44:31.318Z,14.65
2023-05-09T17:47:01.727Z,14.56
2023-05-09T17:49:30.266Z,14.55
2023-05-09T17:51:58.284Z,14.47
2023-05-09T17:54:26.752Z,14.40
2023-05-09T17:56:59.417Z,14.34
2023-05-09T17:59:28.988Z,14.28
2023-05-09T18:01:57.254Z,14.21
2023-05-09T18:04:26.207Z,14.07
2023-05-09T18:06:54.698Z,14.04
2023-05-09T18:09:24.432Z,13.98
2023-05-09T18:11:53.080Z,13.85
2023-05-09T18:14:22.314Z,13.77
2023-05-09T18:16:51.757Z,13.64
2023-05-09T18:19:20.375Z,13.54
2023-05-09T18:21:48.767Z,13.52
2023-05-09T18:24:17.186Z,13.40
2023-05-09T18:26:44.932Z,13.32
2023-05-09T18:29:14.389Z,13.16
2023-05-09T18:31:43.270Z,13.12
2023-05-09T18:34:12.411Z,13.04
2023-05-09T18:36:40.230Z,13.00
2023-05-09T18:39:09.317Z,12.93
2023-05-09T18:41:37.580Z,12.90
2023-05-09T18:44:06.188Z,12.83
2023-05-09T18:46:34.144Z,12.75
2023-05-09T18:49:05.860Z,12.75
2023-05-09T18:51:34.302Z,12.66
2023-05-09T18:54:03.048Z,12.55
2023-05-09T18:56:31.049Z,12.49
2023-05-09T18:58:59.363Z,12.47
2023-05-09T19:01:27.106Z,12.38
2023-05-09T19:03:56.380Z,12.25
2023-05-09T19:06:27.513Z,12.24
2023-05-09T19:08:55.899Z,12.17
2023-05-09T19:11:24.366Z,12.10
2023-05-09T19:13:53.676Z,11.93
2023-05-09T19:16:23.380Z,11.88
2023-05-09T19:18:54.546Z,11.86
2023-05-09T19:21:23.445Z,11.74
2023-05-09T19:23:52.801Z,11.59
2023-05-09T19:26:23.593Z,11.62
2023-05-09T19:29:00.093Z,11.51
2023-05-09T19:31:32.948Z,11.41
2023-05-09T19:34:04.570Z,11.33
2023-05-09T19:36:33.977Z,11.24
2023-05-09T19:39:02.753Z,11.17
2023-05-09T19:41:30.677Z,11.15
2023-05-09T19:43:59.836Z,11.06
2023-05-09T19:46:28.707Z,11.05
2023-05-09T19:48:58.589Z,11.01
2023-05-09T19:51:28.620Z,10.93
2023-05-09T19:53:57.822Z,10.77
2023-05-09T19:56:26.265Z,10.66
2023-05-09T19:58:55.683Z,10.52
2023-05-09T20:01:23.764Z,10.40
2023-05-09T20:03:53.680Z,10.26
2023-05-09T20:06:36.052Z,10.23
2023-05-09T20:09:05.281Z,10.17
2023-05-09T20:11:33.285Z,10.07
2023-05-09T20:14:02.013Z,9.97
2023-05-09T20:16:30.022Z,9.95
2023-05-09T20:18:59.620Z,9.86
2023-05-09T20:21:28.189Z,9.81
2023-05-09T20:23:57.065Z,9.71
2023-05-09T20:26:26.484Z,9.63
2023-05-09T20:29:01.741Z,9.57
2023-05-09T20:31:29.684Z,9.49
2023-05-09T20:33:58.636Z,9.43
2023-05-09T20:36:28.311Z,9.42
2023-05-09T20:38:57.664Z,9.35
2023-05-09T20:41:26.197Z,9.31
2023-05-09T20:43:54.808Z,9.22
2023-05-09T20:46:25.132Z,9.18
2023-05-09T20:48:54.831Z,9.15
2023-05-09T20:51:23.368Z,9.12
2023-05-09T20:53:51.749Z,9.07
2023-05-09T20:56:20.259Z,8.87
2023-05-09T20:58:49.018Z,8.93
2023-05-09T21:01:17.496Z,8.85
2023-05-09T21:03:45.942Z,8.77
2023-05-09T21:06:13.910Z,8.68
2023-05-09T21:08:43.037Z,8.59
2023-05-09T21:11:11.455Z,8.51
2023-05-09T21:13:40.044Z,8.44
2023-05-09T21:16:08.813Z,8.35
2023-05-09T21:18:36.813Z,8.25
2023-05-09T21:21:08.530Z,8.16
2023-05-09T21:23:36.910Z,8.11
2023-05-09T21:26:05.653Z,8.03
2023-05-09T21:28:34.846Z,8.01
2023-05-09T21:31:02.700Z,7.93
2023-05-09T21:33:31.351Z,7.88
2023-05-09T21:35:59.930Z,7.91
2023-05-09T21:38:28.145Z,7.83
2023-05-09T21:40:56.118Z,7.65
2023-05-09T21:43:24.184Z,7.60
2023-05-09T21:45:52.506Z,7.57
2023-05-09T21:48:20.900Z,7.54
2023-05-09T21:50:48.830Z,7.50
2023-05-09T21:53:17.570Z,7.49
2023-05-09T21:55:45.743Z,7.42
2023-05-09T21:58:14.001Z,7.33
2023-05-09T22:00:41.665Z,7.28
2023-05-09T22:03:09.862Z,7.22
2023-05-09T22:05:37.379Z,7.22
2023-05-09T22:08:05.840Z,7.17
2023-05-09T22:10:34.331Z,7.04
2023-05-09T22:13:02.235Z,6.96
2023-05-09T22:15:29.836Z,6.90
2023-05-09T22:17:58.254Z,6.86
2023-05-09T22:20:26.820Z,6.77
2023-05-09T22:22:54.660Z,6.74
2023-05-09T22:25:22.691Z,6.76
2023-05-09T22:27:51.213Z,6.77
2023-05-09T22:30:19.136Z,6.73
2023-05-09T22:32:47.272Z,6.62
2023-05-09T22:35:14.840Z,6.60
2023-05-09T22:37:43.449Z,6.50
2023-05-09T22:40:12.202Z,6.38
2023-05-09T22:42:40.108Z,6.33
2023-05-09T22:45:19.509Z,6.31
2023-05-09T22:47:48.096Z,6.24
2023-05-09T22:50:15.964Z,6.17
2023-05-09T22:52:44.126Z,6.14
2023-05-09T22:55:12.214Z,6.09
2023-05-09T22:57:41.696Z,6.07
2023-05-09T23:00:09.788Z,6.07
2023-05-09T23:02:37.672Z,6.06
2023-05-09T23:05:06.640Z,6.06
2023-05-09T23:07:35.242Z,6.11
2023-05-09T23:10:02.939Z,6.14
2023-05-09T23:12:30.950Z,6.16
2023-05-09T23:14:58.517Z,6.17
2023-05-09T23:17:26.465Z,6.17
2023-05-09T23:19:54.040Z,6.10
2023-05-09T23:22:21.985Z,6.08
2023-05-09T23:24:49.672Z,6.08
2023-05-09T23:27:18.253Z,6.00
2023-05-09T23:29:46.229Z,6.09
2023-05-09T23:32:14.379Z,6.07
2023-05-09T23:34:41.991Z,6.06
2023-05-09T23:37:10.370Z,6.05
2023-05-09T23:39:38.086Z,6.14
2023-05-09T23:42:06.012Z,6.17
2023-05-09T23:44:33.546Z,6.12
2023-05-09T23:47:02.300Z,6.14
2023-05-09T23:49:30.022Z,6.16
2023-05-09T23:51:57.821Z,6.11
2023-05-09T23:54:25.485Z,6.15
2023-05-09T23:56:53.544Z,6.14
2023-05-09T23:59:21.137Z,6.13
